Time;durP1;ratioP1;P1;durP2;ratioP2;P2;SDS_P1;SDS_P2;PMS_P1;PMS_P2;Temp;Humidity;BMP_temperature;BMP_pressure;BME280_temperature;BME280_humidity;BME280_pressure;Samples;Min_cycle;Max_cycle;Signal;HPM_P1;HPM_P2
2023/09/30 00:01:44;;;;;;;3.63;2.70;;;;;;;16.87;77.93;98797.16;5029766;28;20480;-73
2023/09/30 00:04:10;;;;;;;3.20;2.30;;;;;;;16.86;77.96;98791.91;5031390;28;20455;-73
2023/09/30 00:06:37;;;;;;;4.03;2.23;;;;;;;16.87;77.53;98797.16;5034465;28;20562;-73
2023/09/30 00:09:06;;;;;;;2.30;2.00;;;;;;;16.91;77.31;98790.16;5029840;28;21075;-73
2023/09/30 00:11:32;;;;;;;1.97;1.77;;;;;;;16.94;77.22;98788.88;5030173;28;20468;-70
2023/09/30 00:13:59;;;;;;;3.10;2.40;;;;;;;16.99;76.74;98783.56;5029928;28;20509;-73
2023/09/30 00:16:26;;;;;;;3.20;2.10;;;;;;;16.87;76.98;98788.13;5034763;28;20460;-73
2023/09/30 00:18:54;;;;;;;3.30;2.20;;;;;;;16.81;76.71;98787.09;5032193;28;20500;-73
2023/09/30 00:21:21;;;;;;;2.73;2.20;;;;;;;16.82;76.27;98777.00;5045491;28;20483;-73
2023/09/30 00:23:48;;;;;;;3.20;2.10;;;;;;;16.74;76.46;98778.13;5035718;28;20944;-73
2023/09/30 00:26:16;;;;;;;3.00;2.73;;;;;;;16.62;76.81;98780.69;5033955;28;20565;-73
2023/09/30 00:28:42;;;;;;;2.63;2.43;;;;;;;16.69;76.34;98781.50;5042908;28;20486;-73
2023/09/30 00:31:10;;;;;;;4.07;2.50;;;;;;;16.74;75.79;98781.69;5033091;28;20515;-73
2023/09/30 00:33:37;;;;;;;3.37;2.50;;;;;;;16.59;76.56;98789.34;5032452;28;20466;-73
2023/09/30 00:36:09;;;;;;;2.83;2.30;;;;;;;16.57;76.40;98776.97;5030890;28;20506;-73
2023/09/30 00:38:36;;;;;;;2.70;2.17;;;;;;;16.44;76.95;98786.94;5049580;28;20555;-74
2023/09/30 00:41:03;;;;;;;2.60;2.40;;;;;;;16.56;76.70;98792.53;5033523;28;20488;-73
2023/09/30 00:43:31;;;;;;;2.90;2.40;;;;;;;16.55;76.51;98795.50;5035163;28;20452;-73
2023/09/30 00:46:07;;;;;;;4.27;2.70;;;;;;;16.40;77.41;98793.06;5038369;28;20456;-73
2023/09/30 00:48:34;;;;;;;2.43;2.13;;;;;;;16.34;77.89;98804.88;5034502;28;20455;-73
2023/09/30 00:51:02;;;;;;;2.50;2.30;;;;;;;16.40;77.78;98799.38;5040789;28;20483;-73
2023/09/30 00:53:28;;;;;;;4.00;2.80;;;;;;;16.32;78.17;98794.16;5031116;28;20455;-73
2023/09/30 00:55:56;;;;;;;3.20;2.53;;;;;;;16.33;78.16;98792.28;5038224;28;20444;-73
2023/09/30 00:58:27;;;;;;;4.20;2.67;;;;;;;16.31;78.35;98800.69;5030032;28;20553;-73
2023/09/30 01:00:57;;;;;;;3.13;2.83;;;;;;;16.26;78.59;98791.47;5029053;28;20462;-73
2023/09/30 01:03:24;;;;;;;3.33;3.03;;;;;;;16.24;78.25;98793.63;5037186;28;20475;-73
2023/09/30 01:05:51;;;;;;;2.77;2.57;;;;;;;16.04;79.24;98799.19;5048090;28;20440;-73
2023/09/30 01:08:18;;;;;;;3.43;3.13;;;;;;;16.11;78.79;98800.81;5037259;28;20540;-73
2023/09/30 01:10:45;;;;;;;5.60;3.30;;;;;;;16.18;78.81;98794.50;5028444;28;20495;-73
2023/09/30 01:13:12;;;;;;;3.10;2.80;;;;;;;16.07;79.01;98801.47;5043532;28;20484;-73
2023/09/30 01:15:38;;;;;;;3.37;3.07;;;;;;;16.12;78.79;98797.03;5034705;28;20593;-72
2023/09/30 01:18:07;;;;;;;3.43;3.13;;;;;;;16.17;78.74;98798.28;5044878;28;20447;-74
2023/09/30 01:20:33;;;;;;;5.77;3.27;;;;;;;16.06;79.39;98805.25;5036961;28;20534;-74
2023/09/30 01:23:03;;;;;;;4.50;3.50;;;;;;;16.09;79.21;98805.66;5023653;28;20533;-74
2023/09/30 01:25:30;;;;;;;3.97;3.20;;;;;;;16.16;79.02;98802.91;5036286;28;20491;-73
2023/09/30 01:27:59;;;;;;;3.63;3.30;;;;;;;16.00;79.25;98796.03;5029454;28;20539;-73
2023/09/30 01:30:26;;;;;;;3.60;3.30;;;;;;;16.17;78.52;98787.34;5038611;28;20542;-73
2023/09/30 01:32:53;;;;;;;3.77;3.40;;;;;;;16.03;79.07;98795.59;5031404;28;20487;-74
2023/09/30 01:35:21;;;;;;;3.70;3.03;;;;;;;16.06;79.00;98791.59;5030369;28;20460;-74
2023/09/30 01:37:48;;;;;;;4.20;3.80;;;;;;;15.92;79.56;98801.75;5031087;28;20466;-73
2023/09/30 01:40:18;;;;;;;4.13;3.73;;;;;;;15.80;79.94;98803.50;5025879;28;20820;-73
2023/09/30 01:42:45;;;;;;;4.43;4.03;;;;;;;15.82;80.09;98806.84;5043367;28;20463;-73
2023/09/30 01:45:12;;;;;;;4.20;3.70;;;;;;;15.91;79.49;98807.44;5036128;28;20452;-73
2023/09/30 01:47:38;;;;;;;4.57;4.17;;;;;;;15.80;80.07;98806.22;5034359;28;21274;-74
2023/09/30 01:50:06;;;;;;;4.17;3.80;;;;;;;15.92;79.57;98815.41;5037059;28;20526;-73
2023/09/30 01:52:33;;;;;;;5.23;3.90;;;;;;;15.82;80.04;98811.47;5031087;28;20476;-74
2023/09/30 01:55:00;;;;;;;4.13;3.73;;;;;;;15.86;80.15;98808.09;5028129;28;20463;-74
2023/09/30 01:57:28;;;;;;;4.50;4.00;;;;;;;15.90;79.67;98808.50;5022222;28;20492;-74
2023/09/30 01:59:55;;;;;;;3.73;3.43;;;;;;;15.84;79.83;98804.75;5032719;28;20536;-73
2023/09/30 02:02:21;;;;;;;5.43;4.27;;;;;;;15.79;80.15;98802.66;5033821;28;20563;-74
2023/09/30 02:04:48;;;;;;;4.37;3.87;;;;;;;15.78;80.02;98795.53;5034702;28;20530;-73
2023/09/30 02:07:15;;;;;;;4.57;4.17;;;;;;;15.74;80.34;98799.75;5032201;28;22432;-73
2023/09/30 02:09:43;;;;;;;5.30;4.33;;;;;;;15.75;80.47;98789.66;5038298;28;20475;-74
2023/09/30 02:12:10;;;;;;;6.10;4.23;;;;;;;15.67;80.76;98795.34;5030806;28;21029;-73
2023/09/30 02:14:39;;;;;;;4.60;4.17;;;;;;;15.63;81.08;98799.56;5039570;28;20466;-74
2023/09/30 02:17:05;;;;;;;6.03;4.60;;;;;;;15.64;81.18;98803.97;5023941;28;20472;-74
2023/09/30 02:19:33;;;;;;;4.87;4.47;;;;;;;15.59;81.79;98812.00;5035174;28;20873;-73
2023/09/30 02:22:00;;;;;;;4.77;4.33;;;;;;;15.56;81.75;98807.81;5032218;28;20482;-73
2023/09/30 02:24:27;;;;;;;5.13;4.63;;;;;;;15.57;82.01;98816.81;5032651;28;21046;-73
2023/09/30 02:26:54;;;;;;;5.83;4.37;;;;;;;15.68;81.46;98805.22;5028697;28;20517;-74
2023/09/30 02:29:20;;;;;;;4.73;4.23;;;;;;;15.59;81.74;98825.66;5036310;28;20455;-73
2023/09/30 02:31:49;;;;;;;4.93;4.43;;;;;;;15.54;81.98;98815.34;5023675;28;20490;-73
2023/09/30 02:34:15;;;;;;;5.03;4.60;;;;;;;15.31;82.19;98784.97;5028505;28;20463;-74
2023/09/30 02:36:42;;;;;;;4.83;4.10;;;;;;;15.51;82.07;98820.38;5027158;28;20514;-73
2023/09/30 02:39:09;;;;;;;5.27;4.73;;;;;;;15.51;82.30;98814.91;5029018;28;20487;-73
2023/09/30 02:41:37;;;;;;;5.10;4.30;;;;;;;15.51;82.15;98812.19;5027722;28;20478;-73
2023/09/30 02:44:04;;;;;;;6.80;5.30;;;;;;;15.58;82.03;98816.63;5047946;28;20451;-73
2023/09/30 02:46:31;;;;;;;5.60;5.00;;;;;;;15.42;82.52;98823.34;5034371;28;20972;-73
2023/09/30 02:49:01;;;;;;;6.97;5.30;;;;;;;15.48;82.35;98812.63;5039557;28;20517;-73
2023/09/30 02:51:29;;;;;;;9.23;5.47;;;;;;;15.33;82.74;98821.88;5027567;28;20499;-73
2023/09/30 02:53:56;;;;;;;6.10;5.50;;;;;;;15.49;82.54;98817.03;5036784;28;20492;-73
2023/09/30 02:56:24;;;;;;;6.47;5.87;;;;;;;15.40;82.66;98814.53;5037995;28;20456;-73
2023/09/30 02:58:51;;;;;;;8.00;5.47;;;;;;;15.35;82.82;98813.47;5028321;28;20488;-73
2023/09/30 03:01:19;;;;;;;7.43;5.67;;;;;;;15.41;82.36;98816.19;5029167;28;20551;-73
2023/09/30 03:03:46;;;;;;;7.00;5.27;;;;;;;15.59;81.54;98814.72;5021514;28;20459;-73
2023/09/30 03:06:14;;;;;;;6.53;5.93;;;;;;;15.34;82.45;98817.25;5027581;28;20509;-73
2023/09/30 03:08:41;;;;;;;7.43;5.77;;;;;;;15.44;82.19;98832.13;5028900;28;20450;-73
2023/09/30 03:11:08;;;;;;;6.40;5.80;;;;;;;15.36;82.54;98828.81;5031301;28;20500;-74
2023/09/30 03:13:35;;;;;;;8.50;6.70;;;;;;;15.43;82.11;98829.63;5029158;28;20451;-73
2023/09/30 03:16:02;;;;;;;8.60;6.67;;;;;;;15.35;82.26;98833.41;5027003;28;20960;-73
2023/09/30 03:18:30;;;;;;;9.53;6.10;;;;;;;15.43;82.07;98844.09;5031955;28;20534;-73
2023/09/30 03:21:01;;;;;;;6.50;5.90;;;;;;;15.36;82.33;98839.72;5026235;28;20484;-73
2023/09/30 03:23:30;;;;;;;5.87;5.37;;;;;;;15.55;81.15;98841.56;5028305;28;20516;-73
2023/09/30 03:25:58;;;;;;;7.83;6.37;;;;;;;15.65;80.66;98838.41;5031465;28;20523;-73
2023/09/30 03:28:25;;;;;;;6.23;5.50;;;;;;;15.58;81.14;98843.06;5034766;28;20452;-74
2023/09/30 03:30:52;;;;;;;6.53;5.40;;;;;;;15.61;80.51;98842.59;5029507;28;20544;-73
2023/09/30 03:33:18;;;;;;;5.97;5.33;;;;;;;15.57;81.01;98849.56;5029464;28;20482;-73
2023/09/30 03:35:45;;;;;;;5.30;4.80;;;;;;;15.71;80.21;98859.38;5030391;28;21039;-74
2023/09/30 03:38:13;;;;;;;8.03;5.50;;;;;;;15.77;79.82;98847.59;5030439;28;20559;-73
2023/09/30 03:40:47;;;;;;;5.47;4.87;;;;;;;15.67;80.22;98842.59;5042000;28;20483;-73
2023/09/30 03:43:14;;;;;;;5.17;4.67;;;;;;;15.72;80.12;98825.56;5044664;28;20438;-73
2023/09/30 03:45:42;;;;;;;5.40;4.63;;;;;;;15.82;79.57;98817.78;5048387;28;20469;-74
2023/09/30 03:48:09;;;;;;;7.87;4.70;;;;;;;15.69;80.13;98823.28;5049899;28;20458;-74
2023/09/30 03:50:37;;;;;;;5.67;5.17;;;;;;;15.82;79.75;98817.78;5030259;28;20565;-73
2023/09/30 03:53:07;;;;;;;5.00;4.50;;;;;;;15.87;79.59;98820.69;5032493;28;20463;-74
2023/09/30 03:55:34;;;;;;;5.40;4.90;;;;;;;15.73;80.17;98821.78;5051496;28;20535;-74
2023/09/30 03:58:03;;;;;;;6.87;5.20;;;;;;;15.76;80.25;98826.81;5038532;28;20550;-73
2023/09/30 04:00:30;;;;;;;5.23;4.73;;;;;;;15.77;80.31;98825.78;5033688;28;20967;-73
2023/09/30 04:02:58;;;;;;;7.77;4.53;;;;;;;15.84;80.05;98829.31;5032384;28;20525;-73
2023/09/30 04:05:28;;;;;;;7.40;5.47;;;;;;;15.44;81.61;98834.88;5038073;28;20471;-73
2023/09/30 04:07:55;;;;;;;8.90;5.70;;;;;;;15.52;81.63;98850.19;5037251;28;20455;-74
2023/09/30 04:10:23;;;;;;;5.73;5.10;;;;;;;15.62;81.23;98844.28;5037171;28;20552;-73
2023/09/30 04:12:50;;;;;;;6.03;4.90;;;;;;;15.70;80.72;98830.41;5031381;28;20506;-73
2023/09/30 04:15:19;;;;;;;5.40;4.97;;;;;;;15.73;80.60;98829.97;5037281;28;20810;-73
2023/09/30 04:17:45;;;;;;;6.90;5.70;;;;;;;15.67;80.95;98831.69;5032550;28;20459;-73
2023/09/30 04:20:16;;;;;;;7.07;6.47;;;;;;;15.31;82.85;98842.22;5036852;28;20491;-73
2023/09/30 04:22:46;;;;;;;9.83;6.60;;;;;;;15.21;83.66;98837.25;5040907;28;20453;-73
2023/09/30 04:25:16;;;;;;;6.30;5.70;;;;;;;15.39;82.82;98839.28;5030654;28;20490;-73
2023/09/30 04:27:44;;;;;;;7.33;6.10;;;;;;;15.64;81.56;98836.72;5030411;28;20459;-73
2023/09/30 04:30:11;;;;;;;6.70;5.80;;;;;;;15.65;81.52;98839.25;5035783;28;20498;-73
2023/09/30 04:32:39;;;;;;;6.33;5.73;;;;;;;15.61;81.63;98848.06;5035412;28;20495;-73
2023/09/30 04:35:07;;;;;;;6.70;6.00;;;;;;;15.46;82.27;98840.94;5030905;28;21001;-73
2023/09/30 04:37:36;;;;;;;5.80;5.30;;;;;;;15.70;81.26;98844.06;5039204;28;20460;-73
2023/09/30 04:40:07;;;;;;;6.53;5.67;;;;;;;15.69;81.37;98858.75;5050277;28;20461;-73
2023/09/30 04:42:35;;;;;;;6.40;5.50;;;;;;;15.77;80.70;98869.44;5042186;28;20530;-73
2023/09/30 04:45:04;;;;;;;7.00;5.87;;;;;;;15.79;80.65;98867.34;5034173;28;20455;-73
2023/09/30 04:47:32;;;;;;;6.33;5.00;;;;;;;15.72;81.21;98866.50;5029842;28;20452;-73
2023/09/30 04:50:04;;;;;;;7.23;5.60;;;;;;;15.58;81.55;98854.81;5043724;28;20443;-73
2023/09/30 04:52:31;;;;;;;5.30;4.80;;;;;;;15.69;81.28;98851.41;5030582;28;20448;-73
2023/09/30 04:54:57;;;;;;;5.50;5.00;;;;;;;15.67;81.21;98864.44;5040608;28;20459;-73
2023/09/30 04:57:25;;;;;;;7.03;5.30;;;;;;;15.60;81.75;98871.78;5050487;28;20533;-73
2023/09/30 04:59:52;;;;;;;5.77;4.97;;;;;;;15.50;82.30;98876.00;5025754;28;20499;-73
2023/09/30 05:02:18;;;;;;;5.93;5.27;;;;;;;15.75;81.01;98877.00;5038005;28;20558;-74
2023/09/30 05:04:45;;;;;;;7.33;5.43;;;;;;;15.72;80.98;98882.88;5047631;28;20678;-73
2023/09/30 05:07:14;;;;;;;6.63;5.77;;;;;;;15.61;81.65;98880.81;5032219;28;20464;-73
2023/09/30 05:09:41;;;;;;;6.17;5.00;;;;;;;15.76;80.97;98884.97;5044291;28;20479;-73
2023/09/30 05:12:08;;;;;;;6.30;5.70;;;;;;;15.63;81.41;98884.16;5028581;28;20595;-73
2023/09/30 05:14:36;;;;;;;6.20;5.10;;;;;;;15.55;81.75;98882.50;5034054;28;20540;-73
2023/09/30 05:17:04;;;;;;;6.53;5.10;;;;;;;15.67;81.07;98886.25;5035749;28;20440;-73
2023/09/30 05:19:31;;;;;;;5.80;5.20;;;;;;;15.78;80.72;98893.78;5037743;28;20462;-73
2023/09/30 05:22:00;;;;;;;6.70;5.30;;;;;;;15.60;81.41;98885.44;5033980;28;20471;-73
2023/09/30 05:24:29;;;;;;;5.43;4.93;;;;;;;15.52;81.74;98885.66;5021854;28;20467;-75
2023/09/30 05:26:56;;;;;;;7.00;5.40;;;;;;;15.69;81.26;98888.78;5026433;28;20941;-75
2023/09/30 05:29:23;;;;;;;5.87;5.30;;;;;;;15.59;81.18;98880.22;5037093;28;20856;-76
2023/09/30 05:31:50;;;;;;;5.13;4.30;;;;;;;15.51;81.62;98872.22;5034005;28;20574;-77
2023/09/30 05:34:17;;;;;;;7.67;5.30;;;;;;;15.58;81.33;98876.66;5036386;28;20530;-76
2023/09/30 05:36:44;;;;;;;6.97;4.70;;;;;;;15.52;81.54;98879.34;5032161;28;20550;-76
2023/09/30 05:39:11;;;;;;;7.50;5.30;;;;;;;15.50;81.80;98867.81;5025684;28;21243;-76
2023/09/30 05:41:41;;;;;;;5.13;4.70;;;;;;;15.53;81.48;98872.84;5020378;28;20478;-76
2023/09/30 05:44:09;;;;;;;5.37;4.87;;;;;;;15.65;80.82;98871.16;5027394;28;20551;-74
2023/09/30 05:46:36;;;;;;;5.40;4.67;;;;;;;15.57;81.29;98869.50;5027438;28;20456;-73
2023/09/30 05:49:09;;;;;;;6.20;5.10;;;;;;;15.59;81.06;98882.94;5027216;28;20522;-75
2023/09/30 05:51:36;;;;;;;5.03;4.57;;;;;;;15.78;80.35;98876.59;5030869;28;20521;-75
2023/09/30 05:54:04;;;;;;;8.70;5.80;;;;;;;15.63;81.12;98885.00;5030563;28;20533;-77
2023/09/30 05:56:31;;;;;;;6.37;5.30;;;;;;;15.66;80.69;98897.38;5032905;28;20441;-76
2023/09/30 05:59:00;;;;;;;6.80;5.40;;;;;;;15.90;80.02;98898.59;5036749;28;20459;-75
2023/09/30 06:01:27;;;;;;;6.27;5.57;;;;;;;15.97;79.43;98891.19;5029240;28;20476;-75
2023/09/30 06:03:54;;;;;;;7.87;5.80;;;;;;;16.04;78.99;98881.94;5041385;28;20451;-74
2023/09/30 06:06:23;;;;;;;5.77;5.17;;;;;;;15.83;80.14;98889.59;5035310;28;20463;-75
2023/09/30 06:08:50;;;;;;;6.30;5.60;;;;;;;15.87;79.95;98907.22;5032791;28;21074;-75
2023/09/30 06:11:19;;;;;;;7.87;5.80;;;;;;;15.93;79.51;98917.25;5029098;28;20597;-74
2023/09/30 06:13:46;;;;;;;6.87;5.70;;;;;;;16.03;79.11;98923.94;5029134;28;20471;-74
2023/09/30 06:16:16;;;;;;;5.67;4.77;;;;;;;15.96;79.63;98928.59;5026563;28;20462;-74
2023/09/30 06:18:45;;;;;;;7.07;5.03;;;;;;;15.84;80.14;98935.78;5026611;28;20463;-75
2023/09/30 06:21:12;;;;;;;6.87;4.73;;;;;;;16.06;78.94;98928.16;5028550;28;20592;-75
2023/09/30 06:23:38;;;;;;;5.77;5.23;;;;;;;16.27;78.28;98933.31;5039918;28;20470;-69
2023/09/30 06:26:06;;;;;;;6.30;5.60;;;;;;;16.18;78.82;98920.13;5027260;28;20491;-69
2023/09/30 06:28:40;;;;;;;4.87;4.47;;;;;;;16.33;77.69;98926.13;5012351;28;20456;-70
2023/09/30 06:31:07;;;;;;;5.40;3.97;;;;;;;16.40;78.06;98932.41;5026648;28;20480;-70
2023/09/30 06:33:36;;;;;;;6.60;4.57;;;;;;;16.37;77.47;98930.13;5028659;28;20444;-71
2023/09/30 06:36:03;;;;;;;7.10;5.70;;;;;;;16.35;77.21;98932.22;5031737;28;20448;-67
2023/09/30 06:38:30;;;;;;;6.10;4.50;;;;;;;16.49;76.93;98936.59;5026321;28;20464;-74
2023/09/30 06:40:57;;;;;;;6.90;4.97;;;;;;;16.61;76.71;98937.56;5035247;28;20471;-74
2023/09/30 06:43:24;;;;;;;6.20;5.57;;;;;;;16.53;77.13;98940.56;5031923;28;20453;-73
2023/09/30 06:45:51;;;;;;;6.80;5.50;;;;;;;16.83;75.97;98940.00;5028385;28;20462;-74
2023/09/30 06:48:18;;;;;;;6.47;5.87;;;;;;;16.76;76.05;98951.81;5028453;28;20847;-73
2023/09/30 06:50:48;;;;;;;6.60;5.87;;;;;;;16.62;76.29;98946.59;5031769;28;20537;-73
2023/09/30 06:53:15;;;;;;;7.17;6.37;;;;;;;16.83;75.63;98951.78;5029433;28;20539;-75
2023/09/30 06:55:43;;;;;;;5.60;5.10;;;;;;;16.84;75.63;98958.91;5030874;28;20452;-74
2023/09/30 06:58:10;;;;;;;6.90;5.33;;;;;;;17.03;74.54;98968.03;5039302;28;20514;-73
2023/09/30 07:00:37;;;;;;;5.73;5.20;;;;;;;16.75;75.64;98961.06;5026748;28;20491;-73
2023/09/30 07:03:05;;;;;;;7.60;5.40;;;;;;;16.81;75.03;98955.78;5030744;28;20456;-73
2023/09/30 07:05:32;;;;;;;6.27;5.13;;;;;;;17.19;73.92;98961.22;5022316;28;20456;-73
2023/09/30 07:08:00;;;;;;;7.60;5.43;;;;;;;17.86;71.02;98949.47;5032601;28;20478;-75
2023/09/30 07:10:27;;;;;;;5.00;4.60;;;;;;;18.44;68.97;98949.00;5035406;28;20459;-75
2023/09/30 07:12:53;;;;;;;6.07;5.37;;;;;;;19.16;66.06;98943.59;5033867;28;20540;-75
2023/09/30 07:15:20;;;;;;;5.03;4.57;;;;;;;19.19;65.64;98929.38;5034847;28;20443;-76
2023/09/30 07:17:47;;;;;;;5.50;5.00;;;;;;;19.78;63.13;98951.22;5030755;28;20444;-75
2023/09/30 07:20:14;;;;;;;7.03;4.33;;;;;;;20.19;61.98;98952.09;5036148;28;20488;-76
2023/09/30 07:22:42;;;;;;;6.93;5.00;;;;;;;20.43;61.04;98950.19;5026741;28;20972;-76
2023/09/30 07:25:10;;;;;;;4.87;3.80;;;;;;;20.63;59.70;98952.50;5040754;28;20478;-74
2023/09/30 07:27:37;;;;;;;6.30;3.80;;;;;;;20.76;59.58;98968.75;5029273;28;21122;-74
2023/09/30 07:30:06;;;;;;;6.53;4.90;;;;;;;21.32;57.34;98972.56;5031744;28;20472;-75
2023/09/30 07:32:33;;;;;;;6.80;5.00;;;;;;;21.97;55.03;98972.78;5035417;28;20519;-74
2023/09/30 07:35:00;;;;;;;6.80;5.47;;;;;;;21.45;55.79;98973.03;5034812;28;20455;-70
2023/09/30 07:37:27;;;;;;;7.93;5.20;;;;;;;21.40;55.43;98953.72;5032282;28;20472;-74
2023/09/30 07:39:54;;;;;;;7.23;4.90;;;;;;;21.53;55.47;98960.78;5029249;28;20523;-74
2023/09/30 07:42:22;;;;;;;5.33;4.57;;;;;;;21.21;55.45;98966.03;5033711;28;20493;-74
2023/09/30 07:44:49;;;;;;;6.10;4.47;;;;;;;21.96;54.06;98962.00;5024594;28;20459;-74
2023/09/30 07:47:17;;;;;;;4.90;3.90;;;;;;;22.06;53.37;98968.56;5029680;28;20460;-74
2023/09/30 07:49:43;;;;;;;5.10;4.40;;;;;;;22.61;52.46;98970.38;5036899;28;20475;-73
2023/09/30 07:52:10;;;;;;;7.00;4.70;;;;;;;23.06;51.55;98981.16;5036983;28;20913;-76
2023/09/30 07:54:37;;;;;;;5.57;4.23;;;;;;;23.49;50.15;98992.31;5034145;28;20548;-75
2023/09/30 07:57:04;;;;;;;7.23;4.23;;;;;;;23.16;50.43;99004.44;5031873;28;21027;-75
2023/09/30 07:59:33;;;;;;;7.30;4.80;;;;;;;23.24;50.65;98993.75;5038909;28;20446;-75
2023/09/30 08:02:00;;;;;;;6.40;4.03;;;;;;;23.72;49.15;98992.00;5028868;28;20578;-75
2023/09/30 08:04:27;;;;;;;8.27;4.30;;;;;;;23.75;48.86;98986.78;5035385;28;20501;-75
2023/09/30 08:06:53;;;;;;;4.97;4.50;;;;;;;24.05;47.63;98977.88;5041000;28;21004;-75
2023/09/30 08:09:22;;;;;;;6.77;4.60;;;;;;;24.21;47.41;98978.81;5038687;28;20455;-76
2023/09/30 08:11:49;;;;;;;5.13;3.87;;;;;;;23.92;48.05;98975.56;5030416;28;20498;-76
2023/09/30 08:14:16;;;;;;;5.20;3.73;;;;;;;24.54;46.78;98966.56;5034950;28;20445;-73
2023/09/30 08:16:45;;;;;;;4.50;3.70;;;;;;;24.56;46.57;98969.06;5032845;28;20487;-74
2023/09/30 08:19:11;;;;;;;6.80;4.40;;;;;;;24.55;45.51;98948.00;5031146;28;20954;-73
2023/09/30 08:21:38;;;;;;;5.60;4.30;;;;;;;24.43;46.50;98975.91;5029910;28;20464;-70
2023/09/30 08:24:06;;;;;;;7.30;4.40;;;;;;;24.50;46.60;98982.03;5032611;28;20483;-71
2023/09/30 08:26:33;;;;;;;4.03;3.67;;;;;;;23.71;48.47;98973.78;5028414;28;20451;-71
2023/09/30 08:29:00;;;;;;;6.03;4.10;;;;;;;23.09;49.92;98977.84;5030359;28;20987;-71
2023/09/30 08:31:27;;;;;;;6.00;4.50;;;;;;;22.42;52.45;98980.88;5026000;28;20566;-69
2023/09/30 08:33:55;;;;;;;3.97;3.57;;;;;;;22.06;53.09;98985.09;5030277;28;20460;-71
2023/09/30 08:36:22;;;;;;;5.80;4.17;;;;;;;22.44;51.94;98983.38;5034882;28;20448;-69
2023/09/30 08:38:49;;;;;;;6.33;4.53;;;;;;;22.57;52.18;98976.66;5026264;28;20468;-69
2023/09/30 08:41:27;;;;;;;6.93;4.97;;;;;;;22.67;51.52;98958.31;5034083;28;20560;-70
2023/09/30 08:43:57;;;;;;;8.10;4.83;;;;;;;23.12;50.57;98954.41;5028711;28;20451;-71
2023/09/30 08:46:25;;;;;;;5.93;4.70;;;;;;;23.55;49.11;98963.66;5026310;28;20557;-67
2023/09/30 08:48:52;;;;;;;5.37;4.47;;;;;;;23.04;50.28;98975.06;5030660;28;20525;-72
2023/09/30 08:51:20;;;;;;;6.77;3.80;;;;;;;22.89;49.15;98971.28;5034381;28;20521;-70
2023/09/30 08:53:49;;;;;;;5.97;4.40;;;;;;;22.05;52.16;98977.91;5029652;28;20524;-69
2023/09/30 08:56:17;;;;;;;5.77;4.73;;;;;;;22.24;52.30;98986.72;5027843;28;20575;-69
2023/09/30 08:58:44;;;;;;;6.87;4.77;;;;;;;22.20;52.18;98976.44;5033461;28;20459;-70
2023/09/30 09:01:11;;;;;;;4.43;3.90;;;;;;;22.99;50.87;98968.63;5026575;28;20475;-72
2023/09/30 09:03:37;;;;;;;4.53;4.03;;;;;;;23.30;49.20;98958.72;5030558;28;20883;-69
2023/09/30 09:06:04;;;;;;;5.23;4.30;;;;;;;23.27;49.76;98962.00;5031100;28;20460;-69
2023/09/30 09:08:32;;;;;;;4.10;3.70;;;;;;;23.71;48.28;98968.25;5030778;28;20484;-70
2023/09/30 09:11:00;;;;;;;5.03;4.37;;;;;;;23.94;48.04;98973.38;5032362;28;20573;-68
2023/09/30 09:13:28;;;;;;;5.03;4.53;;;;;;;23.54;48.50;98984.13;5036793;28;20495;-69
2023/09/30 09:16:10;;;;;;;5.60;4.00;;;;;;;23.40;49.21;98989.19;5029415;28;20475;-69
2023/09/30 09:18:37;;;;;;;6.63;5.47;;;;;;;23.24;48.81;98988.22;5022390;28;20467;-70
2023/09/30 09:21:12;;;;;;;4.83;4.40;;;;;;;23.05;49.89;98986.94;5028870;28;20879;-69
2023/09/30 09:23:45;;;;;;;4.57;4.17;;;;;;;22.63;50.77;98981.16;5031912;28;20459;-69
2023/09/30 09:26:13;;;;;;;6.90;5.20;;;;;;;22.25;52.80;98993.06;5034513;28;20443;-69
2023/09/30 09:28:42;;;;;;;5.03;4.30;;;;;;;22.62;51.58;98977.56;5027971;28;20517;-69
2023/09/30 09:31:23;;;;;;;4.93;4.43;;;;;;;22.91;50.87;98986.50;5032002;28;20530;-69
2023/09/30 09:33:50;;;;;;;4.80;4.30;;;;;;;23.46;49.90;98980.69;5035610;28;20483;-69
2023/09/30 09:36:19;;;;;;;6.40;5.27;;;;;;;23.96;48.11;98971.19;5038451;28;20486;-70
2023/09/30 09:38:49;;;;;;;4.67;3.90;;;;;;;24.91;46.17;98968.34;5025998;28;20474;-69
2023/09/30 09:41:17;;;;;;;5.40;4.90;;;;;;;25.05;43.87;98972.28;5028325;28;20556;-69
2023/09/30 09:43:44;;;;;;;8.67;5.10;;;;;;;23.75;45.13;98958.28;5033648;28;20463;-69
2023/09/30 09:46:11;;;;;;;6.00;4.60;;;;;;;22.69;48.27;98967.19;5027095;28;20517;-69
2023/09/30 09:48:38;;;;;;;5.47;4.97;;;;;;;21.28;51.88;98971.38;5031227;28;20485;-81
2023/09/30 09:51:07;;;;;;;7.70;4.67;;;;;;;21.32;53.29;98976.16;5017581;28;20483;-70
2023/09/30 09:53:36;;;;;;;5.57;4.40;;;;;;;22.93;48.62;98977.97;5026589;28;20494;-70
2023/09/30 09:56:04;;;;;;;4.77;4.37;;;;;;;23.61;46.67;98963.47;5031028;28;20454;-69
2023/09/30 09:58:34;;;;;;;7.70;5.10;;;;;;;24.53;44.99;98969.59;5028426;28;20462;-70
2023/09/30 10:01:01;;;;;;;5.70;4.80;;;;;;;25.33;42.17;98969.03;5032187;28;20554;-70
2023/09/30 10:03:29;;;;;;;5.90;4.50;;;;;;;25.35;41.79;98961.25;5024684;28;20988;-70
2023/09/30 10:05:56;;;;;;;4.70;4.13;;;;;;;25.69;41.35;98960.75;5032100;28;20481;-71
2023/09/30 10:08:31;;;;;;;5.23;4.50;;;;;;;26.20;40.06;98966.22;5029187;28;20796;-71
2023/09/30 10:10:59;;;;;;;5.90;4.70;;;;;;;26.69;39.00;98946.91;5035853;28;20463;-71
2023/09/30 10:13:53;;;;;;;4.70;4.20;;;;;;;26.18;40.27;98946.25;5031401;28;20494;-71
2023/09/30 10:16:48;;;;;;;4.60;3.87;;;;;;;27.41;37.84;98948.19;5025155;28;20548;-70
2023/09/30 10:19:16;;;;;;;4.83;4.10;;;;;;;27.27;37.94;98930.50;5030461;28;21021;-71
2023/09/30 10:22:17;;;;;;;6.47;4.47;;;;;;;27.72;37.78;98943.22;5021094;28;20460;-73
2023/09/30 10:24:44;;;;;;;4.90;4.40;;;;;;;27.28;37.61;98938.56;5032278;28;20452;-69
2023/09/30 10:27:32;;;;;;;6.07;4.73;;;;;;;28.29;36.53;98944.34;5033984;28;20452;-71
2023/09/30 10:30:13;;;;;;;4.20;3.73;;;;;;;28.68;35.11;98947.75;5027049;28;20508;-70
2023/09/30 10:33:09;;;;;;;5.30;4.33;;;;;;;28.47;35.30;98949.16;5033269;28;20864;-70
2023/09/30 10:35:51;;;;;;;4.40;3.80;;;;;;;28.66;35.06;98949.19;5029243;28;20455;-70
2023/09/30 10:38:37;;;;;;;5.57;4.27;;;;;;;27.08;38.02;98939.50;5029839;28;20435;-71
2023/09/30 10:41:05;;;;;;;5.63;4.20;;;;;;;26.22;39.84;98939.03;5022418;28;24200;-71
2023/09/30 10:43:32;;;;;;;5.47;4.37;;;;;;;26.36;39.57;98940.09;5032973;28;20514;-75
2023/09/30 10:46:01;;;;;;;5.77;4.80;;;;;;;25.83;39.59;98934.09;5027482;28;20534;-71
2023/09/30 10:48:38;;;;;;;5.70;4.63;;;;;;;25.33;41.30;98935.78;5022786;28;20816;-75
2023/09/30 10:51:14;;;;;;;4.30;3.90;;;;;;;25.85;40.92;98926.34;5033193;28;20557;-72
2023/09/30 10:53:46;;;;;;;6.73;4.30;;;;;;;26.01;39.80;98932.69;5032996;28;20990;-70
2023/09/30 10:56:13;;;;;;;4.90;4.40;;;;;;;26.52;38.66;98913.94;5032897;28;20460;-70
2023/09/30 10:58:42;;;;;;;6.53;4.10;;;;;;;26.56;38.05;98914.22;5029114;28;20455;-70
2023/09/30 11:01:10;;;;;;;5.50;4.70;;;;;;;26.76;37.30;98914.94;5029514;28;20462;-69
2023/09/30 11:03:37;;;;;;;4.73;3.53;;;;;;;26.66;36.89;98920.53;5031437;28;20551;-70
2023/09/30 11:06:04;;;;;;;4.67;4.27;;;;;;;26.29;37.16;98914.59;5027735;28;20487;-70
2023/09/30 11:08:31;;;;;;;6.80;4.30;;;;;;;26.76;36.21;98912.16;5039682;28;20447;-70
2023/09/30 11:11:00;;;;;;;5.50;5.00;;;;;;;26.40;37.41;98905.13;5028951;28;20550;-70
2023/09/30 11:13:34;;;;;;;7.20;5.40;;;;;;;25.63;38.46;98903.59;5037757;28;20653;-71
2023/09/30 11:16:02;;;;;;;6.50;4.50;;;;;;;24.68;39.99;98898.50;5047076;28;20526;-69
2023/09/30 11:18:32;;;;;;;5.83;5.23;;;;;;;24.50;40.63;98903.69;5034680;28;20835;-69
2023/09/30 11:21:10;;;;;;;5.40;4.83;;;;;;;24.79;40.56;98900.19;5034133;28;20828;-70
2023/09/30 11:23:38;;;;;;;4.67;4.23;;;;;;;25.51;39.35;98884.47;5038913;28;20549;-69
2023/09/30 11:26:05;;;;;;;6.40;5.03;;;;;;;25.36;38.47;98874.22;5034176;28;20481;-73
2023/09/30 11:28:40;;;;;;;6.63;4.50;;;;;;;25.20;39.27;98900.28;5025626;28;20809;-70
2023/09/30 11:31:11;;;;;;;7.77;5.10;;;;;;;24.59;40.58;98908.44;5025559;28;20455;-74
2023/09/30 11:33:53;;;;;;;7.30;4.97;;;;;;;25.06;39.53;98890.81;5032328;28;20565;-74
2023/09/30 11:36:21;;;;;;;4.80;4.10;;;;;;;25.99;38.15;98894.09;5034174;28;20455;-75
2023/09/30 11:38:49;;;;;;;5.90;4.43;;;;;;;26.11;37.42;98891.88;5030008;28;20475;-75
2023/09/30 11:41:18;;;;;;;4.70;4.20;;;;;;;26.27;37.41;98894.59;5027469;28;20962;-85